Time;durP1;ratioP1;P1;durP2;ratioP2;P2;SDS_P1;SDS_P2;PMS_P1;PMS_P2;Temp;Humidity;BMP_temperature;BMP_pressure;BME280_temperature;BME280_humidity;BME280_pressure;Samples;Min_cycle;Max_cycle;Signal;HPM_P1;HPM_P2
2022/04/15 00:01:21;;;;;;;8.98;8.38;;;;;;;;;;5080532;28;20024;-50
2022/04/15 00:03:47;;;;;;;11.18;10.48;;;;;;;;;;5079424;28;20029;-51
2022/04/15 00:06:12;;;;;;;13.23;12.43;;;;;;;;;;5076756;28;20123;-54
2022/04/15 00:08:38;;;;;;;12.07;11.38;;;;;;;;;;5079110;28;20052;-53
2022/04/15 00:11:04;;;;;;;10.20;9.60;;;;;;;;;;5073311;28;20032;-53
2022/04/15 00:13:32;;;;;;;11.65;10.75;;;;;;;;;;5074851;28;20072;-51
2022/04/15 00:15:58;;;;;;;8.95;8.35;;;;;;;;;;5077174;28;20030;-52
2022/04/15 00:18:24;;;;;;;14.40;13.57;;;;;;;;;;5077543;28;20480;-54
2022/04/15 00:20:52;;;;;;;12.00;11.20;;;;;;;;;;5076495;28;20028;-52
2022/04/15 00:23:18;;;;;;;10.40;9.60;;;;;;;;;;5074973;28;20024;-51
2022/04/15 00:25:43;;;;;;;9.57;8.98;;;;;;;;;;5077415;28;20028;-50
2022/04/15 00:28:09;;;;;;;9.93;9.32;;;;;;;;;;5077244;28;20078;-51
2022/04/15 00:30:34;;;;;;;9.40;8.70;;;;;;;;;;5077179;28;20067;-52
2022/04/15 00:33:00;;;;;;;9.15;8.50;;;;;;;;;;5078773;28;20514;-51
2022/04/15 00:35:25;;;;;;;8.07;7.38;;;;;;;;;;5081772;28;20042;-50
2022/04/15 00:37:50;;;;;;;6.32;5.93;;;;;;;;;;5079431;28;20055;-53
2022/04/15 00:40:16;;;;;;;6.38;5.97;;;;;;;;;;5076777;28;20024;-54
2022/04/15 00:42:41;;;;;;;7.43;6.93;;;;;;;;;;5072567;28;20024;-53
2022/04/15 00:45:10;;;;;;;6.25;5.85;;;;;;;;;;5075234;28;20028;-52
2022/04/15 00:47:49;;;;;;;8.68;8.07;;;;;;;;;;5075913;28;20424;-53
2022/04/15 00:50:15;;;;;;;7.22;6.72;;;;;;;;;;5076782;28;20028;-51
2022/04/15 00:52:45;;;;;;;8.50;7.90;;;;;;;;;;5077401;28;20450;-52
2022/04/15 00:55:13;;;;;;;8.30;7.80;;;;;;;;;;5074986;28;20793;-54
2022/04/15 00:57:41;;;;;;;10.60;9.90;;;;;;;;;;5078122;28;20462;-53
2022/04/15 01:00:08;;;;;;;8.27;7.68;;;;;;;;;;5078879;28;20031;-51
2022/04/15 01:02:34;;;;;;;8.68;7.97;;;;;;;;;;5077710;28;20079;-54
2022/04/15 01:05:02;;;;;;;10.07;9.48;;;;;;;;;;5074355;28;20035;-54
2022/04/15 01:07:32;;;;;;;10.52;9.85;;;;;;;;;;5075502;28;20032;-51
2022/04/15 01:09:58;;;;;;;9.95;9.25;;;;;;;;;;5072700;28;20086;-53
2022/04/15 01:12:28;;;;;;;9.82;9.18;;;;;;;;;;5072870;28;20055;-52
2022/04/15 01:14:59;;;;;;;9.75;8.95;;;;;;;;;;5072728;28;20028;-51
2022/04/15 01:17:25;;;;;;;9.52;8.93;;;;;;;;;;5077535;28;20032;-52
2022/04/15 01:19:50;;;;;;;9.10;8.50;;;;;;;;;;5076289;28;20460;-51
2022/04/15 01:22:17;;;;;;;10.18;9.52;;;;;;;;;;5074035;28;20123;-51
2022/04/15 01:24:43;;;;;;;8.00;7.47;;;;;;;;;;5076263;28;20410;-50
2022/04/15 01:27:09;;;;;;;10.65;9.95;;;;;;;;;;5071325;28;20055;-50
2022/04/15 01:29:38;;;;;;;8.73;8.13;;;;;;;;;;5079566;28;20032;-50
2022/04/15 01:32:07;;;;;;;12.18;6.65;;;;;;;;;;5075222;28;20028;-49
2022/04/15 01:34:33;;;;;;;9.85;9.25;;;;;;;;;;5077392;28;20032;-50
2022/04/15 01:37:00;;;;;;;7.82;7.32;;;;;;;;;;5077219;28;20036;-50
2022/04/15 01:39:27;;;;;;;9.88;9.27;;;;;;;;;;5076689;28;20168;-50
2022/04/15 01:41:53;;;;;;;9.07;8.38;;;;;;;;;;5075320;28;20040;-51
2022/04/15 01:44:18;;;;;;;8.15;7.57;;;;;;;;;;5075480;28;20032;-52
2022/04/15 01:46:43;;;;;;;8.60;8.00;;;;;;;;;;5074506;28;20369;-50
2022/04/15 01:49:09;;;;;;;6.68;6.18;;;;;;;;;;5073906;28;20088;-48
2022/04/15 01:51:35;;;;;;;8.77;8.18;;;;;;;;;;5075356;28;20545;-53
2022/04/15 01:54:01;;;;;;;9.05;8.45;;;;;;;;;;5075290;28;20474;-52
2022/04/15 01:56:26;;;;;;;7.53;7.03;;;;;;;;;;5076231;28;20062;-52
2022/04/15 01:58:52;;;;;;;9.40;8.80;;;;;;;;;;5077324;28;20335;-50
2022/04/15 02:01:17;;;;;;;9.27;8.68;;;;;;;;;;5077896;28;20036;-53
2022/04/15 02:03:42;;;;;;;8.50;7.90;;;;;;;;;;5077576;28;20430;-50
2022/04/15 02:06:08;;;;;;;7.78;7.28;;;;;;;;;;5075445;28;20146;-53
2022/04/15 02:08:33;;;;;;;7.00;6.40;;;;;;;;;;5073466;28;20036;-51
2022/04/15 02:10:59;;;;;;;9.63;8.93;;;;;;;;;;5072258;28;20036;-54
2022/04/15 02:13:24;;;;;;;7.75;7.22;;;;;;;;;;5072353;28;20059;-55
2022/04/15 02:15:49;;;;;;;8.75;8.15;;;;;;;;;;5076121;28;20031;-49
2022/04/15 02:18:15;;;;;;;7.80;7.28;;;;;;;;;;5073452;28;20190;-53
2022/04/15 02:20:40;;;;;;;7.20;6.28;;;;;;;;;;5075838;28;20071;-50
2022/04/15 02:23:06;;;;;;;8.32;7.72;;;;;;;;;;5074342;28;20117;-54
2022/04/15 02:25:31;;;;;;;7.93;7.22;;;;;;;;;;5076740;28;20040;-50
2022/04/15 02:27:57;;;;;;;7.55;7.05;;;;;;;;;;5074383;28;20109;-50
2022/04/15 02:30:22;;;;;;;7.55;7.05;;;;;;;;;;5074275;28;20028;-51
2022/04/15 02:32:47;;;;;;;7.57;6.97;;;;;;;;;;5072154;28;20562;-53
2022/04/15 02:35:13;;;;;;;8.45;7.85;;;;;;;;;;5072145;28;20039;-52
2022/04/15 02:37:39;;;;;;;7.20;6.70;;;;;;;;;;5072781;28;20366;-50
2022/04/15 02:40:06;;;;;;;6.13;5.72;;;;;;;;;;5076928;28;20070;-54
2022/04/15 02:42:32;;;;;;;7.05;6.55;;;;;;;;;;5072908;28;20036;-52
2022/04/15 02:44:58;;;;;;;7.35;6.65;;;;;;;;;;5073054;28;20086;-52
2022/04/15 02:47:23;;;;;;;6.53;6.03;;;;;;;;;;5073809;28;20031;-52
2022/04/15 02:49:49;;;;;;;6.70;6.20;;;;;;;;;;5074111;28;20444;-53
2022/04/15 02:52:14;;;;;;;6.38;5.88;;;;;;;;;;5075013;28;20024;-52
2022/04/15 02:54:40;;;;;;;6.03;5.53;;;;;;;;;;5073959;28;20107;-52
2022/04/15 02:57:05;;;;;;;7.63;6.50;;;;;;;;;;5074611;28;20024;-54
2022/04/15 02:59:30;;;;;;;6.93;6.43;;;;;;;;;;5070692;28;20566;-51
2022/04/15 03:01:56;;;;;;;5.82;5.43;;;;;;;;;;5072991;28;20067;-51
2022/04/15 03:04:21;;;;;;;5.63;5.15;;;;;;;;;;5072149;28;20109;-52
2022/04/15 03:06:46;;;;;;;5.32;4.93;;;;;;;;;;5073279;28;20074;-54
2022/04/15 03:09:12;;;;;;;5.60;5.20;;;;;;;;;;5075905;28;20030;-53
2022/04/15 03:11:38;;;;;;;6.32;5.82;;;;;;;;;;5073645;28;20036;-52
2022/04/15 03:14:04;;;;;;;6.40;5.82;;;;;;;;;;5070638;28;20021;-53
2022/04/15 03:16:30;;;;;;;6.22;5.72;;;;;;;;;;5072027;28;20028;-53
2022/04/15 03:18:55;;;;;;;7.57;6.97;;;;;;;;;;5071694;28;20055;-52
2022/04/15 03:21:21;;;;;;;5.88;5.40;;;;;;;;;;5070986;28;20089;-55
2022/04/15 03:23:46;;;;;;;6.25;5.82;;;;;;;;;;5076085;28;20028;-53
2022/04/15 03:26:11;;;;;;;6.93;6.32;;;;;;;;;;5074779;28;20358;-52
2022/04/15 03:28:37;;;;;;;6.25;5.80;;;;;;;;;;5073761;28;20032;-52
2022/04/15 03:31:05;;;;;;;6.22;5.75;;;;;;;;;;5073024;28;20028;-52
2022/04/15 03:33:31;;;;;;;6.18;5.68;;;;;;;;;;5075171;28;20032;-51
2022/04/15 03:35:56;;;;;;;6.32;5.82;;;;;;;;;;5080291;28;20040;-52
2022/04/15 03:38:22;;;;;;;5.68;5.28;;;;;;;;;;5080524;28;20020;-51
2022/04/15 03:40:47;;;;;;;6.30;5.85;;;;;;;;;;5080350;28;20025;-54
2022/04/15 03:43:12;;;;;;;7.13;6.53;;;;;;;;;;5078187;28;20165;-50
2022/04/15 03:45:38;;;;;;;4.57;4.18;;;;;;;;;;5077211;28;20364;-52
2022/04/15 03:48:04;;;;;;;5.88;5.38;;;;;;;;;;5077826;28;20036;-49
2022/04/15 03:50:29;;;;;;;5.35;4.95;;;;;;;;;;5076218;28;20120;-53
2022/04/15 03:52:54;;;;;;;6.70;6.10;;;;;;;;;;5079769;28;20029;-52
2022/04/15 03:55:22;;;;;;;5.53;5.07;;;;;;;;;;5080760;28;20036;-55
2022/04/15 03:57:48;;;;;;;5.05;4.65;;;;;;;;;;5071887;28;20032;-52
2022/04/15 04:00:21;;;;;;;5.47;5.07;;;;;;;;;;5076100;28;20107;-55
2022/04/15 04:02:48;;;;;;;5.80;5.30;;;;;;;;;;5077622;28;20114;-54
2022/04/15 04:05:14;;;;;;;5.18;4.78;;;;;;;;;;5074678;28;20118;-54
2022/04/15 04:07:42;;;;;;;5.03;4.63;;;;;;;;;;5063213;28;20123;-51
2022/04/15 04:10:11;;;;;;;5.32;4.90;;;;;;;;;;5082999;28;20041;-53
2022/04/15 04:12:37;;;;;;;5.30;4.90;;;;;;;;;;5075041;28;20036;-50
2022/04/15 04:15:05;;;;;;;5.75;5.35;;;;;;;;;;5078704;28;20193;-52
2022/04/15 04:17:30;;;;;;;5.05;4.65;;;;;;;;;;5076975;28;20035;-55
2022/04/15 04:19:56;;;;;;;5.70;5.28;;;;;;;;;;5080638;28;20056;-51
2022/04/15 04:22:27;;;;;;;5.65;5.25;;;;;;;;;;5079862;28;20093;-53
2022/04/15 04:24:52;;;;;;;6.32;5.82;;;;;;;;;;5077891;28;20029;-50
2022/04/15 04:27:18;;;;;;;5.75;5.25;;;;;;;;;;5074202;28;20376;-54
2022/04/15 04:29:43;;;;;;;5.47;5.07;;;;;;;;;;5078961;28;20446;-50
2022/04/15 04:32:08;;;;;;;5.13;4.72;;;;;;;;;;5076493;28;20058;-50
2022/04/15 04:34:34;;;;;;;5.65;5.25;;;;;;;;;;5076194;28;20063;-55
2022/04/15 04:36:59;;;;;;;5.18;4.78;;;;;;;;;;5076405;28;20036;-50
2022/04/15 04:39:27;;;;;;;4.90;4.50;;;;;;;;;;5072535;28;20024;-49
2022/04/15 04:41:53;;;;;;;5.95;5.47;;;;;;;;;;5078031;28;20056;-52
2022/04/15 04:44:19;;;;;;;5.88;5.38;;;;;;;;;;5072793;28;20040;-49
2022/04/15 04:46:44;;;;;;;5.22;4.82;;;;;;;;;;5076465;28;20402;-51
2022/04/15 04:49:10;;;;;;;5.30;4.90;;;;;;;;;;5074215;28;20457;-51
2022/04/15 04:51:36;;;;;;;5.60;5.18;;;;;;;;;;5076380;28;20043;-52
2022/04/15 04:54:01;;;;;;;5.10;4.63;;;;;;;;;;5076971;28;20046;-50
2022/04/15 04:56:27;;;;;;;5.50;5.10;;;;;;;;;;5077371;28;20391;-52
2022/04/15 04:58:52;;;;;;;5.28;4.78;;;;;;;;;;5076762;28;20028;-52
2022/04/15 05:01:17;;;;;;;6.03;5.57;;;;;;;;;;5076848;28;20078;-53
2022/04/15 05:03:43;;;;;;;5.95;5.25;;;;;;;;;;5078465;28;20409;-50
2022/04/15 05:06:08;;;;;;;5.43;4.90;;;;;;;;;;5077159;28;20051;-53
2022/04/15 05:08:33;;;;;;;4.72;4.28;;;;;;;;;;5077924;28;20042;-51
2022/04/15 05:10:59;;;;;;;5.40;5.00;;;;;;;;;;5077081;28;20501;-53
2022/04/15 05:13:24;;;;;;;5.28;4.80;;;;;;;;;;5076676;28;20033;-52
2022/04/15 05:15:49;;;;;;;5.63;5.18;;;;;;;;;;5074720;28;20025;-53
2022/04/15 05:18:15;;;;;;;5.70;5.10;;;;;;;;;;5074357;28;20040;-53
2022/04/15 05:20:40;;;;;;;6.30;5.13;;;;;;;;;;5078431;28;20024;-54
2022/04/15 05:23:05;;;;;;;4.80;4.40;;;;;;;;;;5077340;28;20049;-54
2022/04/15 05:25:31;;;;;;;6.20;5.75;;;;;;;;;;5075561;28;20028;-53
2022/04/15 05:27:58;;;;;;;5.85;5.30;;;;;;;;;;5072248;28;20024;-53
2022/04/15 05:30:24;;;;;;;5.30;4.80;;;;;;;;;;5074305;28;20626;-50
2022/04/15 05:32:49;;;;;;;4.95;4.55;;;;;;;;;;5073598;28;20033;-52
2022/04/15 05:35:15;;;;;;;6.38;5.78;;;;;;;;;;5080108;28;20035;-52
2022/04/15 05:37:40;;;;;;;6.15;5.55;;;;;;;;;;5071702;28;20130;-54
2022/04/15 05:40:06;;;;;;;5.13;4.72;;;;;;;;;;5077376;28;20028;-52
2022/04/15 05:42:32;;;;;;;5.05;4.65;;;;;;;;;;5074745;28;20037;-53
2022/04/15 05:44:57;;;;;;;6.55;6.05;;;;;;;;;;5078141;28;20044;-52
2022/04/15 05:47:22;;;;;;;7.15;6.45;;;;;;;;;;5074705;28;20033;-52
2022/04/15 05:49:48;;;;;;;7.13;6.10;;;;;;;;;;5077467;28;20032;-54
2022/04/15 05:52:14;;;;;;;7.53;6.93;;;;;;;;;;5074664;28;20078;-51
2022/04/15 05:54:39;;;;;;;6.55;6.00;;;;;;;;;;5075006;28;20094;-52
2022/04/15 05:57:05;;;;;;;6.15;5.65;;;;;;;;;;5074608;28;20036;-51
2022/04/15 05:59:31;;;;;;;7.18;6.57;;;;;;;;;;5074871;28;20033;-52
2022/04/15 06:01:56;;;;;;;8.15;7.07;;;;;;;;;;5077555;28;20032;-53
2022/04/15 06:04:21;;;;;;;6.75;6.25;;;;;;;;;;5075072;28;20051;-52
2022/04/15 06:06:47;;;;;;;6.35;5.85;;;;;;;;;;5077202;28;20020;-52
2022/04/15 06:09:13;;;;;;;7.28;6.68;;;;;;;;;;5077300;28;20021;-53
2022/04/15 06:11:41;;;;;;;8.32;7.72;;;;;;;;;;5070879;28;20043;-50
2022/04/15 06:14:07;;;;;;;7.90;7.20;;;;;;;;;;5069459;28;20024;-52
2022/04/15 06:16:33;;;;;;;6.85;6.25;;;;;;;;;;5075609;28;20476;-52
2022/04/15 06:18:59;;;;;;;7.22;6.72;;;;;;;;;;5073374;28;20036;-51
2022/04/15 06:21:25;;;;;;;8.55;7.95;;;;;;;;;;5059059;28;20184;-51
2022/04/15 06:23:50;;;;;;;9.13;8.52;;;;;;;;;;5072242;28;20020;-52
2022/04/15 06:26:15;;;;;;;7.97;7.30;;;;;;;;;;5071575;28;20098;-55
2022/04/15 06:28:41;;;;;;;9.90;9.00;;;;;;;;;;5072299;28;20048;-53
2022/04/15 06:31:06;;;;;;;8.60;7.90;;;;;;;;;;5076364;28;20028;-54
2022/04/15 06:33:32;;;;;;;9.77;9.05;;;;;;;;;;5071030;28;20020;-53
2022/04/15 06:35:59;;;;;;;8.82;8.13;;;;;;;;;;5072422;28;20446;-54
2022/04/15 06:38:25;;;;;;;9.73;9.02;;;;;;;;;;5073586;28;20032;-53
2022/04/15 06:40:50;;;;;;;7.60;7.00;;;;;;;;;;5071118;28;20031;-51
2022/04/15 06:43:15;;;;;;;9.35;8.75;;;;;;;;;;5061469;28;20040;-53
2022/04/15 06:45:41;;;;;;;10.15;9.45;;;;;;;;;;5068991;28;20784;-55
2022/04/15 06:48:07;;;;;;;11.90;10.90;;;;;;;;;;5063610;28;20079;-55
2022/04/15 06:50:32;;;;;;;10.32;9.63;;;;;;;;;;5073813;28;20496;-53
2022/04/15 06:52:57;;;;;;;10.77;10.07;;;;;;;;;;5064507;28;20063;-55
2022/04/15 06:55:23;;;;;;;12.85;12.02;;;;;;;;;;5070152;28;20123;-53
2022/04/15 06:57:48;;;;;;;10.98;10.27;;;;;;;;;;5071238;28;20046;-49
2022/04/15 07:00:14;;;;;;;10.65;9.95;;;;;;;;;;5072846;28;20414;-55
2022/04/15 07:02:41;;;;;;;12.38;11.48;;;;;;;;;;5065680;28;20035;-55
2022/04/15 07:05:09;;;;;;;11.07;10.35;;;;;;;;;;5062964;28;20159;-54
2022/04/15 07:07:38;;;;;;;11.02;10.15;;;;;;;;;;5072108;28;20409;-55
2022/04/15 07:10:05;;;;;;;9.98;9.27;;;;;;;;;;5079537;28;20047;-56
2022/04/15 07:12:31;;;;;;;10.85;8.50;;;;;;;;;;5078996;28;20108;-56
2022/04/15 07:14:57;;;;;;;11.55;10.80;;;;;;;;;;5078221;28;20040;-56
2022/04/15 07:17:23;;;;;;;12.07;11.27;;;;;;;;;;5077481;28;20382;-51
2022/04/15 07:19:48;;;;;;;10.13;9.43;;;;;;;;;;5079543;28;20040;-55
2022/04/15 07:22:21;;;;;;;10.43;9.73;;;;;;;;;;5073451;28;20020;-55
2022/04/15 07:24:47;;;;;;;11.43;10.70;;;;;;;;;;5080210;28;20048;-56
2022/04/15 07:27:12;;;;;;;27.02;24.35;;;;;;;;;;5081330;28;20028;-55
2022/04/15 07:29:38;;;;;;;17.90;16.60;;;;;;;;;;5078131;28;20044;-55
2022/04/15 07:32:04;;;;;;;38.45;36.35;;;;;;;;;;5082085;28;20364;-56
2022/04/15 07:34:29;;;;;;;33.45;31.50;;;;;;;;;;5084009;28;20417;-55
2022/04/15 07:36:55;;;;;;;46.83;42.70;;;;;;;;;;5079295;28;20063;-55
2022/04/15 07:39:22;;;;;;;44.53;42.17;;;;;;;;;;5080021;28;20033;-55
2022/04/15 07:41:48;;;;;;;30.65;28.70;;;;;;;;;;5079109;28;20048;-55
2022/04/15 07:44:15;;;;;;;44.28;41.65;;;;;;;;;;5085649;28;20039;-52
2022/04/15 07:46:42;;;;;;;45.90;43.58;;;;;;;;;;5076915;28;20079;-55
2022/04/15 07:49:07;;;;;;;49.30;46.63;;;;;;;;;;5086529;28;20047;-52
2022/04/15 07:51:33;;;;;;;48.40;45.85;;;;;;;;;;5077343;28;20460;-55
2022/04/15 07:53:59;;;;;;;46.75;44.03;;;;;;;;;;5084203;28;20115;-53
2022/04/15 07:56:24;;;;;;;52.28;49.58;;;;;;;;;;5081950;28;20176;-56
2022/04/15 07:58:50;;;;;;;31.92;30.23;;;;;;;;;;5080688;28;20035;-55
2022/04/15 08:01:20;;;;;;;17.17;16.10;;;;;;;;;;5081288;28;20086;-54
2022/04/15 08:03:46;;;;;;;12.52;11.73;;;;;;;;;;5076780;28;20039;-56
2022/04/15 08:06:12;;;;;;;16.65;15.50;;;;;;;;;;5077453;28;20101;-56
2022/04/15 08:08:38;;;;;;;11.35;9.73;;;;;;;;;;5078932;28;20503;-56
2022/04/15 08:11:03;;;;;;;14.38;13.27;;;;;;;;;;5075166;28;20066;-56
2022/04/15 08:13:29;;;;;;;11.38;10.60;;;;;;;;;;5076130;28;20023;-55
2022/04/15 08:15:54;;;;;;;11.07;10.27;;;;;;;;;;5080377;28;20020;-56
2022/04/15 08:18:21;;;;;;;11.05;10.35;;;;;;;;;;5078139;28;20078;-56
2022/04/15 08:20:47;;;;;;;13.63;12.73;;;;;;;;;;5072048;28;20039;-55
2022/04/15 08:23:12;;;;;;;13.25;12.35;;;;;;;;;;5074466;28;20020;-56
2022/04/15 08:25:37;;;;;;;11.68;10.77;;;;;;;;;;5075023;28;20058;-56
2022/04/15 08:28:06;;;;;;;10.98;10.18;;;;;;;;;;5073023;28;20040;-56
2022/04/15 08:30:33;;;;;;;12.45;11.43;;;;;;;;;;5072413;28;20071;-56
2022/04/15 08:32:59;;;;;;;15.55;14.55;;;;;;;;;;5073658;28;20405;-56
2022/04/15 08:35:24;;;;;;;17.33;16.23;;;;;;;;;;5070631;28;20021;-55
2022/04/15 08:37:50;;;;;;;14.82;13.93;;;;;;;;;;5072693;28;20086;-56
2022/04/15 08:40:16;;;;;;;22.83;21.42;;;;;;;;;;5073153;28;20028;-56
2022/04/15 08:42:42;;;;;;;22.40;20.95;;;;;;;;;;5074763;28;20409;-57
2022/04/15 08:45:08;;;;;;;22.98;21.58;;;;;;;;;;5074213;28;20978;-54
2022/04/15 08:47:36;;;;;;;18.92;17.83;;;;;;;;;;5074587;28;20130;-56
2022/04/15 08:50:06;;;;;;;27.10;25.60;;;;;;;;;;5074320;28;20070;-55
2022/04/15 08:52:32;;;;;;;23.70;22.40;;;;;;;;;;5075316;28;20085;-55
2022/04/15 08:55:00;;;;;;;25.33;23.92;;;;;;;;;;5070465;28;20788;-54
2022/04/15 08:57:26;;;;;;;23.83;22.52;;;;;;;;;;5073673;28;20101;-52
2022/04/15 08:59:53;;;;;;;25.58;24.17;;;;;;;;;;5076029;28;20955;-54
2022/04/15 09:02:33;;;;;;;25.80;24.23;;;;;;;;;;5072727;28;20032;-55
2022/04/15 09:05:00;;;;;;;27.67;26.05;;;;;;;;;;5070824;28;20043;-55
2022/04/15 09:07:33;;;;;;;43.28;41.03;;;;;;;;;;5069427;28;20024;-52
2022/04/15 09:10:00;;;;;;;23.60;22.30;;;;;;;;;;5071389;28;20157;-55
2022/04/15 09:12:29;;;;;;;35.35;33.47;;;;;;;;;;5069019;28;20035;-55
2022/04/15 09:15:15;;;;;;;32.40;30.67;;;;;;;;;;5074295;28;20505;-54
2022/04/15 09:17:47;;;;;;;53.10;50.38;;;;;;;;;;5072416;28;20450;-54
2022/04/15 09:20:12;;;;;;;47.42;44.97;;;;;;;;;;5073764;28;20123;-55
2022/04/15 09:22:38;;;;;;;58.92;55.88;;;;;;;;;;5073252;28;20123;-55
2022/04/15 09:25:05;;;;;;;57.80;54.90;;;;;;;;;;5071862;28;20029;-55
2022/04/15 09:27:30;;;;;;;66.72;63.35;;;;;;;;;;5069876;28;20039;-56
2022/04/15 09:29:55;;;;;;;68.10;64.57;;;;;;;;;;5075127;28;20024;-55
2022/04/15 09:32:22;;;;;;;67.00;63.63;;;;;;;;;;5073122;28;20052;-54
2022/04/15 09:34:57;;;;;;;61.65;58.55;;;;;;;;;;5072230;28;20252;-55
2022/04/15 09:37:27;;;;;;;49.95;47.40;;;;;;;;;;5067082;28;20029;-56
2022/04/15 09:40:06;;;;;;;55.92;53.10;;;;;;;;;;5074314;28;20768;-55
2022/04/15 09:42:34;;;;;;;35.10;33.25;;;;;;;;;;5066735;28;22026;-53
2022/04/15 09:45:12;;;;;;;44.15;41.90;;;;;;;;;;5064331;28;20067;-55
2022/04/15 09:47:39;;;;;;;37.05;35.15;;;;;;;;;;5064831;28;20183;-56
2022/04/15 09:50:26;;;;;;;33.80;32.05;;;;;;;;;;5067609;28;20060;-56
2022/04/15 09:52:53;;;;;;;26.75;25.35;;;;;;;;;;5064597;28;20413;-54
2022/04/15 09:55:20;;;;;;;32.60;30.90;;;;;;;;;;5060145;28;20032;-56
2022/04/15 09:57:50;;;;;;;22.58;21.38;;;;;;;;;;5060139;23;20051;-56
2022/04/15 10:00:19;;;;;;;23.80;22.50;;;;;;;;;;5042674;28;20136;-56
2022/04/15 10:02:49;;;;;;;20.05;18.95;;;;;;;;;;5044307;28;20032;-55
2022/04/15 10:05:15;;;;;;;19.35;18.30;;;;;;;;;;5043997;28;20494;-55
2022/04/15 10:07:42;;;;;;;14.77;13.88;;;;;;;;;;5042125;28;20037;-56
2022/04/15 10:10:09;;;;;;;14.90;14.07;;;;;;;;;;5041820;28;20031;-55
2022/04/15 10:12:39;;;;;;;19.33;18.25;;;;;;;;;;5042760;28;20549;-56
2022/04/15 10:15:09;;;;;;;19.02;18.00;;;;;;;;;;5057600;28;20033;-56
2022/04/15 10:17:36;;;;;;;;;;;;;;;;;;5041699;28;20722;-55
2022/04/15 10:20:02;;;;;;;18.00;17.00;;;;;;;;;;5041790;28;20281;-56
2022/04/15 10:22:28;;;;;;;14.50;13.70;;;;;;;;;;5040504;28;20032;-56
2022/04/15 10:24:54;;;;;;;16.35;15.45;;;;;;;;;;5042382;28;20160;-45
2022/04/15 10:27:30;;;;;;;21.20;19.85;;;;;;;;;;5040333;28;20033;-46
2022/04/15 10:30:20;;;;;;;15.88;14.98;;;;;;;;;;5040962;28;20020;-45
2022/04/15 10:32:59;;;;;;;29.33;27.77;;;;;;;;;;5044871;28;20072;-47
2022/04/15 10:35:32;;;;;;;21.83;20.63;;;;;;;;;;5020783;28;20228;-45
2022/04/15 10:38:08;;;;;;;17.60;16.60;;;;;;;;;;5045366;28;20029;-45
2022/04/15 10:40:34;;;;;;;22.63;21.40;;;;;;;;;;5034843;28;20082;-46
2022/04/15 10:43:18;;;;;;;33.72;31.92;;;;;;;;;;5039321;28;20029;-46
2022/04/15 10:45:44;;;;;;;56.25;53.45;;;;;;;;;;5043864;28;20108;-46
2022/04/15 10:48:09;;;;;;;37.72;35.72;;;;;;;;;;5045374;28;20117;-46
2022/04/15 10:50:35;;;;;;;25.58;24.23;;;;;;;;;;5042839;28;20033;-46
2022/04/15 10:53:26;;;;;;;41.50;39.35;;;;;;;;;;5045723;28;20032;-45
2022/04/15 10:55:52;;;;;;;35.42;33.60;;;;;;;;;;5045787;28;20473;-45
2022/04/15 10:58:19;;;;;;;45.75;43.42;;;;;;;;;;5044660;28;20032;-46
2022/04/15 11:01:14;;;;;;;39.13;36.97;;;;;;;;;;5041716;28;20059;-46
2022/04/15 11:03:40;;;;;;;39.50;37.50;;;;;;;;;;5040606;28;20060;-47
2022/04/15 11:06:07;;;;;;;40.03;37.92;;;;;;;;;;5040831;28;20033;-46
2022/04/15 11:08:46;;;;;;;38.75;36.70;;;;;;;;;;5042828;28;20162;-47
2022/04/15 11:11:12;;;;;;;34.15;32.38;;;;;;;;;;5031690;28;20064;-49
2022/04/15 11:13:40;;;;;;;33.55;31.83;;;;;;;;;;5039769;28;20125;-49
2022/04/15 11:16:06;;;;;;;24.50;23.20;;;;;;;;;;5040139;28;20040;-48
2022/04/15 11:18:55;;;;;;;27.67;26.25;;;;;;;;;;5040001;28;20072;-46
2022/04/15 11:21:29;;;;;;;23.95;22.65;;;;;;;;;;5042960;28;20025;-46
2022/04/15 11:23:57;;;;;;;28.10;26.65;;;;;;;;;;5040400;28;20029;-46
2022/04/15 11:26:24;;;;;;;28.92;27.42;;;;;;;;;;5041617;28;20450;-48
2022/04/15 11:28:51;;;;;;;32.38;30.70;;;;;;;;;;5040307;28;20033;-47
2022/04/15 11:31:37;;;;;;;43.85;41.63;;;;;;;;;;5039756;28;20504;-49
2022/04/15 11:34:06;;;;;;;38.25;36.30;;;;;;;;;;5035559;28;20140;-47
2022/04/15 11:36:39;;;;;;;37.97;36.03;;;;;;;;;;5035915;28;20045;-49
2022/04/15 11:39:07;;;;;;;38.15;36.20;;;;;;;;;;5039533;28;20206;-52
2022/04/15 11:41:33;;;;;;;50.28;47.75;;;;;;;;;;5038561;28;20037;-54
2022/04/15 11:44:00;;;;;;;52.05;48.33;;;;;;;;;;5039164;28;20033;-53
2022/04/15 11:46:51;;;;;;;43.63;41.35;;;;;;;;;;5043512;28;20139;-55
2022/04/15 11:49:16;;;;;;;52.70;49.78;;;;;;;;;;5041381;28;20638;-55
2022/04/15 11:51:47;;;;;;;59.17;55.05;;;;;;;;;;5040734;28;20083;-55
2022/04/15 11:54:12;;;;;;;;;;;;;;;;;;5041610;28;20033;-47
2022/04/15 11:56:39;;;;;;;37.60;35.65;;;;;;;;;;5041677;28;20308;-45
2022/04/15 11:59:06;;;;;;;38.17;36.22;;;;;;;;;;5045434;28;20659;-46
2022/04/15 12:01:32;;;;;;;50.42;47.80;;;;;;;;;;5047957;28;20108;-46
2022/04/15 12:04:00;;;;;;;41.83;39.72;;;;;;;;;;5047263;28;20119;-46
2022/04/15 12:06:26;;;;;;;44.28;42.05;;;;;;;;;;5047429;28;20041;-45
2022/04/15 12:08:53;;;;;;;36.28;34.38;;;;;;;;;;5043202;28;20059;-45
2022/04/15 12:11:23;;;;;;;29.05;27.55;;;;;;;;;;5043534;28;20041;-45
2022/04/15 12:13:54;;;;;;;31.45;29.83;;;;;;;;;;5041197;28;20052;-48
2022/04/15 12:16:20;;;;;;;29.52;28.00;;;;;;;;;;5044460;28;20037;-48
2022/04/15 12:18:45;;;;;;;24.42;23.10;;;;;;;;;;5042072;28;20037;-46
2022/04/15 12:21:11;;;;;;;25.38;24.02;;;;;;;;;;5043097;28;20025;-46
2022/04/15 12:23:36;;;;;;;29.13;27.63;;;;;;;;;;5043000;28;20033;-44
2022/04/15 12:26:07;;;;;;;27.17;25.77;;;;;;;;;;5045424;28;20033;-47
2022/04/15 12:31:33;;;;;;;28.75;27.25;;;;;;;;;;5043641;28;20189;-46
2022/04/15 12:34:00;;;;;;;24.90;23.60;;;;;;;;;;5042308;28;20025;-46
2022/04/15 12:36:48;;;;;;;28.05;26.60;;;;;;;;;;5043603;28;20033;-45
2022/04/15 12:39:14;;;;;;;29.67;28.05;;;;;;;;;;5044280;28;20081;-45
2022/04/15 12:41:46;;;;;;;38.38;36.42;;;;;;;;;;5043538;28;20399;-49
2022/04/15 12:44:27;;;;;;;31.40;29.80;;;;;;;;;;5036220;28;20137;-46
2022/04/15 12:47:02;;;;;;;30.48;28.88;;;;;;;;;;5075726;28;20407;-48
2022/04/15 12:49:33;;;;;;;32.88;31.17;;;;;;;;;;5042358;28;20033;-46
2022/04/15 12:52:09;;;;;;;21.80;20.60;;;;;;;;;;5043775;28;20025;-50
2022/04/15 12:54:34;;;;;;;23.73;22.27;;;;;;;;;;5042081;28;20501;-47
2022/04/15 12:57:00;;;;;;;22.25;21.05;;;;;;;;;;5042529;28;20119;-45
2022/04/15 12:59:26;;;;;;;20.20;19.00;;;;;;;;;;5040394;28;20071;-45
2022/04/15 13:01:51;;;;;;;21.13;20.00;;;;;;;;;;5042771;28;20429;-47
2022/04/15 13:04:18;;;;;;;18.27;17.27;;;;;;;;;;5042171;28;20126;-46
2022/04/15 13:06:43;;;;;;;22.73;21.52;;;;;;;;;;5039615;28;20114;-46
2022/04/15 13:09:09;;;;;;;20.23;19.13;;;;;;;;;;5040910;28;20067;-47
2022/04/15 13:11:34;;;;;;;18.52;17.52;;;;;;;;;;5041522;28;20045;-48
2022/04/15 13:14:01;;;;;;;23.20;22.00;;;;;;;;;;5037804;28;20037;-47
2022/04/15 13:16:27;;;;;;;25.58;24.15;;;;;;;;;;5042394;28;20684;-45
2022/04/15 13:18:54;;;;;;;31.13;29.52;;;;;;;;;;5043212;28;20418;-45
2022/04/15 13:21:20;;;;;;;29.15;27.60;;;;;;;;;;5043214;28;20029;-46
2022/04/15 13:23:46;;;;;;;24.13;22.85;;;;;;;;;;5042019;28;20033;-48
2022/04/15 13:26:12;;;;;;;25.17;23.85;;;;;;;;;;5042407;28;20533;-46
2022/04/15 13:28:37;;;;;;;25.52;24.17;;;;;;;;;;5042220;28;20199;-49
2022/04/15 13:31:03;;;;;;;24.15;22.85;;;;;;;;;;5043563;28;20041;-47
2022/04/15 13:33:28;;;;;;;21.35;20.20;;;;;;;;;;5041586;28;20068;-46
2022/04/15 13:35:54;;;;;;;21.30;20.15;;;;;;;;;;5037727;28;20130;-47
2022/04/15 13:38:19;;;;;;;26.45;25.05;;;;;;;;;;5035212;28;20467;-51
2022/04/15 13:40:45;;;;;;;22.20;21.00;;;;;;;;;;5043121;28;20086;-49
2022/04/15 13:43:10;;;;;;;21.85;20.67;;;;;;;;;;5041831;28;20163;-47
2022/04/15 13:45:36;;;;;;;25.58;24.05;;;;;;;;;;5039200;28;20037;-47
2022/04/15 13:48:01;;;;;;;20.90;19.80;;;;;;;;;;5041167;28;20045;-45
2022/04/15 13:50:27;;;;;;;23.55;22.30;;;;;;;;;;5038372;28;20082;-48
2022/04/15 13:58:20;;;;;;;19.50;18.42;;;;;;;;;;5043758;28;20476;-46
2022/04/15 14:00:46;;;;;;;17.45;16.48;;;;;;;;;;5042546;28;20021;-47
2022/04/15 14:03:11;;;;;;;20.80;19.70;;;;;;;;;;5039904;28;20424;-48
2022/04/15 14:05:37;;;;;;;19.85;18.25;;;;;;;;;;5058788;28;20029;-46
2022/04/15 14:08:03;;;;;;;23.42;22.15;;;;;;;;;;5042669;28;20033;-45
2022/04/15 14:10:29;;;;;;;23.70;22.42;;;;;;;;;;5039680;28;20112;-45
2022/04/15 14:12:55;;;;;;;26.95;25.52;;;;;;;;;;5042576;28;20078;-47
2022/04/15 14:15:23;;;;;;;27.63;26.17;;;;;;;;;;5041242;28;20420;-45
2022/04/15 14:17:50;;;;;;;28.30;26.75;;;;;;;;;;5041279;28;20033;-48
2022/04/15 14:20:15;;;;;;;29.33;27.77;;;;;;;;;;5042002;28;20355;-45
2022/04/15 14:22:40;;;;;;;30.60;29.00;;;;;;;;;;5043446;28;20067;-46
2022/04/15 14:25:06;;;;;;;30.13;28.50;;;;;;;;;;5041971;28;20041;-48
2022/04/15 14:27:31;;;;;;;34.55;32.75;;;;;;;;;;5042075;28;20361;-46
2022/04/15 14:29:57;;;;;;;27.65;26.23;;;;;;;;;;5039259;28;20509;-47
2022/04/15 14:32:22;;;;;;;32.60;30.92;;;;;;;;;;5042012;28;20039;-48
2022/04/15 14:34:52;;;;;;;35.92;34.08;;;;;;;;;;5040540;28;20098;-45
2022/04/15 14:37:18;;;;;;;33.83;32.08;;;;;;;;;;5039627;28;20029;-45